Time;durP1;ratioP1;P1;durP2;ratioP2;P2;SDS_P1;SDS_P2;PMS_P1;PMS_P2;Temp;Humidity;BMP_temperature;BMP_pressure;BME280_temperature;BME280_humidity;BME280_pressure;Samples;Min_cycle;Max_cycle;Signal;HPM_P1;HPM_P2
2021/09/17 00:02:23;;;;;;;22.00;15.87;;;15.70;99.90;;;;;;5005575;28;20246;-53
2021/09/17 00:04:51;;;;;;;19.27;14.10;;;15.80;99.90;;;;;;5004352;28;20205;-52
2021/09/17 00:07:18;;;;;;;21.57;15.30;;;15.90;99.90;;;;;;4993667;28;20216;-53
2021/09/17 00:09:45;;;;;;;22.20;15.17;;;15.80;99.90;;;;;;4993735;28;20220;-53
2021/09/17 00:12:12;;;;;;;20.97;14.97;;;15.90;99.90;;;;;;5005473;28;20207;-53
2021/09/17 00:14:39;;;;;;;20.97;15.93;;;16.00;99.90;;;;;;5005282;28;20279;-53
2021/09/17 00:17:06;;;;;;;20.10;15.13;;;16.00;99.90;;;;;;5005972;28;20332;-53
2021/09/17 00:19:34;;;;;;;23.47;17.00;;;16.00;99.90;;;;;;5006917;28;20225;-53
2021/09/17 00:22:01;;;;;;;24.67;17.63;;;16.10;99.90;;;;;;4995836;28;20573;-53
2021/09/17 00:24:28;;;;;;;22.27;16.90;;;16.10;99.90;;;;;;5002529;28;20546;-53
2021/09/17 00:26:55;;;;;;;24.73;18.97;;;16.00;99.90;;;;;;5002583;28;20225;-52
2021/09/17 00:29:22;;;;;;;27.23;18.37;;;15.90;99.90;;;;;;5010641;28;20253;-53
2021/09/17 00:31:49;;;;;;;23.73;18.53;;;15.90;99.90;;;;;;5004710;28;20664;-53
2021/09/17 00:34:16;;;;;;;22.63;17.47;;;15.80;99.90;;;;;;5005059;28;20293;-53
2021/09/17 00:36:43;;;;;;;25.33;17.77;;;15.80;99.90;;;;;;5005167;28;20251;-53
2021/09/17 00:39:13;;;;;;;22.60;17.23;;;15.90;99.90;;;;;;5001535;28;20247;-53
2021/09/17 00:41:41;;;;;;;25.47;18.20;;;16.00;99.90;;;;;;5006176;28;20240;-53
2021/09/17 00:44:09;;;;;;;24.67;17.60;;;16.00;99.90;;;;;;5004901;28;20346;-52
2021/09/17 00:46:36;;;;;;;24.97;18.00;;;16.00;99.90;;;;;;5010295;28;20680;-53
2021/09/17 00:49:04;;;;;;;24.03;17.80;;;15.90;99.90;;;;;;5017428;28;20203;-52
2021/09/17 00:51:31;;;;;;;24.33;18.83;;;15.70;99.90;;;;;;5009282;28;20206;-53
2021/09/17 00:53:58;;;;;;;26.30;17.27;;;15.70;99.90;;;;;;5008449;28;20619;-53
2021/09/17 00:56:25;;;;;;;22.83;17.60;;;15.90;99.90;;;;;;5001218;28;20600;-52
2021/09/17 00:58:53;;;;;;;24.13;17.27;;;16.10;99.90;;;;;;5007602;28;20230;-53
2021/09/17 01:01:20;;;;;;;21.97;16.80;;;16.10;99.90;;;;;;5005199;28;20246;-53
2021/09/17 01:03:47;;;;;;;23.10;16.77;;;16.00;99.90;;;;;;5005826;28;20213;-53
2021/09/17 01:06:14;;;;;;;21.83;16.73;;;16.00;99.90;;;;;;5006021;28;21087;-53
2021/09/17 01:08:41;;;;;;;21.60;16.67;;;16.00;99.90;;;;;;5005535;28;20235;-53
2021/09/17 01:11:09;;;;;;;22.90;17.47;;;16.00;99.90;;;;;;5008945;28;20237;-53
2021/09/17 01:13:36;;;;;;;24.40;17.90;;;16.00;99.90;;;;;;5009856;28;20413;-52
2021/09/17 01:16:04;;;;;;;27.07;17.80;;;15.90;99.90;;;;;;5005015;28;20247;-53
2021/09/17 01:18:31;;;;;;;22.77;17.70;;;15.70;99.90;;;;;;5010054;28;20320;-53
2021/09/17 01:21:00;;;;;;;20.57;17.37;;;15.60;99.90;;;;;;5007551;28;20326;-53
2021/09/17 01:23:27;;;;;;;24.40;17.93;;;15.50;99.90;;;;;;5016155;28;20658;-53
2021/09/17 01:25:55;;;;;;;22.07;16.60;;;15.60;99.90;;;;;;5002207;28;20207;-53
2021/09/17 01:28:28;;;;;;;21.87;16.47;;;15.70;99.90;;;;;;5018935;28;20301;-53
2021/09/17 01:30:56;;;;;;;23.60;17.13;;;15.90;99.90;;;;;;5003090;28;20202;-52
2021/09/17 01:33:24;;;;;;;22.33;17.57;;;15.90;99.90;;;;;;5008891;28;20444;-53
2021/09/17 01:35:59;;;;;;;22.70;16.87;;;15.90;99.90;;;;;;5007687;28;20674;-53
2021/09/17 01:38:29;;;;;;;20.87;16.70;;;16.00;99.90;;;;;;4998998;28;20250;-53
2021/09/17 01:40:56;;;;;;;24.03;17.47;;;16.10;99.90;;;;;;5007005;28;20524;-52
2021/09/17 01:43:24;;;;;;;20.03;14.97;;;16.10;99.90;;;;;;5009329;28;20309;-53
2021/09/17 01:45:51;;;;;;;21.63;16.63;;;16.10;99.90;;;;;;4999282;28;20226;-53
2021/09/17 01:48:18;;;;;;;21.03;15.63;;;16.20;99.90;;;;;;5017570;28;20319;-53
2021/09/17 01:50:45;;;;;;;21.70;17.13;;;16.10;99.90;;;;;;5009730;28;20248;-52
2021/09/17 01:53:12;;;;;;;21.07;16.20;;;16.10;99.90;;;;;;5007049;28;20202;-53
2021/09/17 01:55:39;;;;;;;22.23;16.13;;;16.10;99.90;;;;;;5006430;28;20298;-53
2021/09/17 01:58:07;;;;;;;20.20;15.77;;;16.10;99.90;;;;;;5004623;28;20250;-53
2021/09/17 02:00:34;;;;;;;22.43;16.73;;;16.20;99.90;;;;;;5007712;28;20455;-53
2021/09/17 02:03:01;;;;;;;20.47;15.97;;;16.30;99.90;;;;;;5002619;28;20742;-53
2021/09/17 02:05:29;;;;;;;19.67;15.40;;;16.30;99.90;;;;;;5008578;28;20203;-52
2021/09/17 02:07:57;;;;;;;21.40;16.03;;;16.30;99.90;;;;;;5003257;28;20294;-52
2021/09/17 02:10:24;;;;;;;20.13;16.27;;;16.20;99.90;;;;;;5003478;28;20226;-53
2021/09/17 02:12:52;;;;;;;22.33;16.67;;;16.10;99.90;;;;;;5007125;28;20230;-52
2021/09/17 02:15:19;;;;;;;19.80;15.27;;;16.10;99.90;;;;;;5003276;28;20583;-53
2021/09/17 02:17:46;;;;;;;19.53;15.50;;;16.10;99.90;;;;;;5005672;28;20298;-53
2021/09/17 02:20:13;;;;;;;21.37;16.43;;;16.20;99.90;;;;;;5007440;28;20289;-53
2021/09/17 02:22:40;;;;;;;19.53;15.60;;;16.10;99.90;;;;;;5008251;28;20219;-52
2021/09/17 02:25:08;;;;;;;16.93;14.50;;;16.20;99.90;;;;;;5005371;28;20761;-53
2021/09/17 02:27:35;;;;;;;21.70;15.60;;;16.30;99.90;;;;;;5012233;28;20263;-53
2021/09/17 02:30:05;;;;;;;21.30;15.93;;;16.10;99.90;;;;;;5008335;28;20254;-53
2021/09/17 02:32:32;;;;;;;20.07;15.80;;;15.90;99.90;;;;;;5002923;28;20289;-53
2021/09/17 02:35:00;;;;;;;19.07;15.47;;;15.80;99.90;;;;;;5005139;28;20219;-53
2021/09/17 02:37:27;;;;;;;22.20;16.80;;;15.80;99.90;;;;;;5007335;28;20298;-52
2021/09/17 02:39:53;;;;;;;21.83;15.27;;;15.80;99.90;;;;;;5001236;28;20680;-52
2021/09/17 02:42:21;;;;;;;19.70;15.67;;;15.70;99.90;;;;;;5007087;28;20230;-52
2021/09/17 02:44:48;;;;;;;18.87;15.53;;;15.80;99.90;;;;;;5012434;28;20202;-52
2021/09/17 02:47:15;;;;;;;21.33;15.50;;;15.90;99.90;;;;;;5002666;28;20199;-52
2021/09/17 02:49:42;;;;;;;20.07;15.20;;;16.00;99.90;;;;;;4990281;28;20231;-52
2021/09/17 02:52:09;;;;;;;21.67;16.13;;;15.90;99.90;;;;;;5010411;28;20250;-53
2021/09/17 02:54:36;;;;;;;19.33;15.27;;;16.00;99.90;;;;;;4993251;28;20240;-52
2021/09/17 02:57:03;;;;;;;23.67;15.30;;;15.90;99.90;;;;;;5001542;28;20290;-52
2021/09/17 02:59:30;;;;;;;21.67;15.70;;;16.00;99.90;;;;;;5017555;28;20244;-53
2021/09/17 03:01:57;;;;;;;20.00;14.40;;;16.00;99.90;;;;;;5012204;28;20297;-52
2021/09/17 03:04:24;;;;;;;19.33;15.10;;;15.90;99.90;;;;;;5002816;28;20289;-52
2021/09/17 03:06:53;;;;;;;20.57;15.73;;;15.90;99.90;;;;;;5004975;28;20585;-52
2021/09/17 03:09:20;;;;;;;18.27;14.57;;;15.90;99.90;;;;;;5009379;28;20655;-52
2021/09/17 03:11:47;;;;;;;21.27;14.97;;;16.00;99.90;;;;;;5008902;28;20320;-53
2021/09/17 03:14:14;;;;;;;20.80;15.87;;;16.00;99.90;;;;;;5009157;28;20693;-52
2021/09/17 03:16:40;;;;;;;19.27;15.13;;;15.90;99.90;;;;;;5005818;28;20382;-52
2021/09/17 03:19:07;;;;;;;17.67;14.30;;;15.90;99.90;;;;;;5012079;28;20706;-53
2021/09/17 03:21:34;;;;;;;18.53;14.43;;;15.90;99.90;;;;;;5008999;28;20251;-53
2021/09/17 03:24:01;;;;;;;21.83;16.03;;;15.90;99.90;;;;;;5003908;28;20229;-52
2021/09/17 03:26:28;;;;;;;17.50;14.17;;;16.00;99.90;;;;;;5005869;28;20234;-52
2021/09/17 03:28:56;;;;;;;17.57;14.07;;;16.10;99.90;;;;;;5007432;28;20794;-52
2021/09/17 03:31:23;;;;;;;20.37;14.53;;;16.10;99.90;;;;;;5004969;28;20227;-52
2021/09/17 03:33:49;;;;;;;19.33;15.07;;;16.20;99.90;;;;;;5006862;28;20287;-53
2021/09/17 03:36:16;;;;;;;20.87;14.73;;;16.10;99.90;;;;;;5011609;28;20295;-53
2021/09/17 03:38:43;;;;;;;19.03;14.63;;;16.10;99.90;;;;;;4996565;28;20341;-53
2021/09/17 03:41:10;;;;;;;17.63;14.40;;;16.00;99.90;;;;;;5010677;28;20218;-52
2021/09/17 03:43:37;;;;;;;18.30;14.47;;;16.00;99.90;;;;;;5005051;28;20198;-53
2021/09/17 03:46:04;;;;;;;20.77;15.30;;;16.00;99.90;;;;;;5000990;28;20221;-53
2021/09/17 03:48:31;;;;;;;18.60;15.07;;;16.00;99.90;;;;;;5015309;28;20663;-52
2021/09/17 03:50:58;;;;;;;19.77;14.93;;;16.10;99.90;;;;;;5015866;28;20226;-53
2021/09/17 03:53:25;;;;;;;19.43;15.13;;;16.10;99.90;;;;;;5011480;28;20235;-52
2021/09/17 03:55:52;;;;;;;17.83;15.10;;;16.10;99.90;;;;;;4984262;28;20207;-52
2021/09/17 03:58:19;;;;;;;18.90;14.57;;;16.10;99.90;;;;;;5008032;28;20245;-52
2021/09/17 04:00:46;;;;;;;20.57;16.23;;;16.20;99.90;;;;;;5013135;28;20229;-52
2021/09/17 04:03:13;;;;;;;20.10;15.67;;;16.10;99.90;;;;;;5009943;28;20218;-52
2021/09/17 04:05:40;;;;;;;18.90;15.00;;;16.10;99.90;;;;;;5005012;28;20194;-52
2021/09/17 04:08:07;;;;;;;17.80;15.03;;;16.00;99.90;;;;;;4998964;28;20613;-52
2021/09/17 04:10:34;;;;;;;21.17;15.67;;;16.10;99.90;;;;;;5005063;28;20270;-53
2021/09/17 04:13:01;;;;;;;19.23;14.97;;;16.00;99.90;;;;;;5008410;28;20615;-52
2021/09/17 04:15:28;;;;;;;20.20;15.73;;;15.90;99.90;;;;;;5006155;28;20307;-52
2021/09/17 04:17:55;;;;;;;19.73;15.70;;;15.90;99.90;;;;;;5012224;28;20292;-52
2021/09/17 04:20:22;;;;;;;19.20;16.10;;;15.90;99.90;;;;;;5008272;28;20334;-53
2021/09/17 04:22:48;;;;;;;24.07;15.90;;;15.80;99.90;;;;;;5010426;28;20202;-52
2021/09/17 04:25:15;;;;;;;19.73;15.17;;;15.90;99.90;;;;;;5005807;28;20220;-52
2021/09/17 04:27:46;;;;;;;22.67;16.60;;;16.10;99.90;;;;;;5011549;28;20222;-52
2021/09/17 04:30:14;;;;;;;18.37;15.50;;;16.00;99.90;;;;;;5012452;28;20209;-53
2021/09/17 04:32:43;;;;;;;19.83;15.47;;;16.10;99.90;;;;;;5005566;28;20326;-52
2021/09/17 04:35:11;;;;;;;23.10;16.43;;;16.10;99.90;;;;;;5014481;28;20654;-52
2021/09/17 04:37:40;;;;;;;18.93;15.10;;;15.90;99.90;;;;;;5006877;28;20231;-52
2021/09/17 04:40:08;;;;;;;22.03;15.80;;;15.80;99.90;;;;;;4998398;28;20345;-52
2021/09/17 04:42:35;;;;;;;20.73;15.90;;;15.80;99.90;;;;;;5009262;28;20230;-52
2021/09/17 04:45:04;;;;;;;19.47;15.10;;;15.80;99.90;;;;;;5007549;28;20199;-52
2021/09/17 04:47:31;;;;;;;22.07;15.13;;;16.00;99.90;;;;;;5010686;28;20627;-53
2021/09/17 04:49:59;;;;;;;19.97;15.30;;;16.10;99.90;;;;;;5013000;28;20293;-52
2021/09/17 04:52:43;;;;;;;22.30;16.10;;;16.00;99.90;;;;;;5003215;28;20198;-52
2021/09/17 04:55:10;;;;;;;20.13;15.47;;;16.00;99.90;;;;;;5003025;28;20272;-52
2021/09/17 04:57:37;;;;;;;20.13;15.47;;;16.10;99.90;;;;;;5005941;28;20475;-52
2021/09/17 05:00:06;;;;;;;18.87;15.00;;;16.20;99.90;;;;;;5009944;28;20241;-52
2021/09/17 05:02:33;;;;;;;18.57;14.63;;;16.10;99.90;;;;;;5002938;28;20204;-52
2021/09/17 05:05:02;;;;;;;21.27;15.77;;;16.20;99.90;;;;;;5003796;28;20700;-53
2021/09/17 05:07:33;;;;;;;19.83;15.60;;;16.20;99.90;;;;;;5006512;28;20297;-53
2021/09/17 05:10:00;;;;;;;22.50;16.10;;;16.10;99.90;;;;;;5000599;28;20194;-52
2021/09/17 05:12:27;;;;;;;19.57;16.10;;;16.10;99.90;;;;;;5022260;28;20239;-52
2021/09/17 05:14:54;;;;;;;21.80;16.07;;;16.10;99.90;;;;;;5005531;28;20258;-52
2021/09/17 05:17:21;;;;;;;20.23;14.63;;;16.10;99.90;;;;;;5013867;28;20371;-52
2021/09/17 05:19:48;;;;;;;18.97;15.40;;;16.00;99.90;;;;;;5012386;28;20285;-52
2021/09/17 05:22:15;;;;;;;21.50;15.07;;;16.00;99.90;;;;;;5011939;28;20240;-52
2021/09/17 05:24:42;;;;;;;28.07;14.60;;;16.00;99.90;;;;;;5003476;28;20191;-52
2021/09/17 05:27:14;;;;;;;19.33;13.40;;;16.10;99.90;;;;;;5016305;28;20236;-52
2021/09/17 05:29:42;;;;;;;19.73;14.87;;;16.20;99.90;;;;;;5001593;28;20219;-52
2021/09/17 05:32:09;;;;;;;19.07;14.70;;;16.20;99.90;;;;;;5000600;28;20312;-52
2021/09/17 05:34:36;;;;;;;18.57;14.37;;;16.20;99.90;;;;;;5007055;28;20204;-52
2021/09/17 05:37:04;;;;;;;17.90;14.07;;;16.20;99.90;;;;;;5005508;28;20662;-52
2021/09/17 05:39:32;;;;;;;19.97;14.67;;;16.20;99.90;;;;;;5000221;28;20310;-52
2021/09/17 05:41:59;;;;;;;17.60;13.53;;;16.30;99.90;;;;;;5011192;28;20296;-52
2021/09/17 05:44:27;;;;;;;19.23;14.93;;;16.40;99.90;;;;;;5011381;28;20294;-52
2021/09/17 05:46:54;;;;;;;18.10;14.10;;;16.40;99.90;;;;;;5006289;28;20203;-52
2021/09/17 05:49:21;;;;;;;18.17;13.53;;;16.40;99.90;;;;;;5005793;28;20300;-52
2021/09/17 05:51:48;;;;;;;21.17;14.47;;;16.50;99.90;;;;;;5007941;28;20569;-52
2021/09/17 05:54:15;;;;;;;18.57;13.40;;;16.40;99.90;;;;;;5010047;28;20301;-52
2021/09/17 05:56:42;;;;;;;17.20;13.47;;;16.40;99.90;;;;;;5005554;28;20295;-52
2021/09/17 05:59:09;;;;;;;18.53;14.20;;;16.40;99.90;;;;;;5009089;28;20330;-52
2021/09/17 06:01:36;;;;;;;17.13;13.70;;;16.40;99.90;;;;;;5001190;28;20233;-52
2021/09/17 06:04:04;;;;;;;17.83;14.33;;;16.40;99.90;;;;;;5012035;28;20656;-52
2021/09/17 06:06:31;;;;;;;17.27;13.50;;;16.40;99.90;;;;;;5010291;28;20241;-52
2021/09/17 06:08:58;;;;;;;17.50;13.60;;;16.50;99.90;;;;;;5002039;28;20242;-52
2021/09/17 06:11:25;;;;;;;20.20;14.00;;;16.50;99.90;;;;;;4998853;28;20229;-52
2021/09/17 06:13:52;;;;;;;19.47;14.10;;;16.40;99.90;;;;;;5002408;28;20247;-52
2021/09/17 06:16:19;;;;;;;17.17;13.30;;;16.40;99.90;;;;;;4996534;28;20586;-52
2021/09/17 06:18:47;;;;;;;18.40;13.70;;;16.50;99.90;;;;;;5000804;28;20702;-52
2021/09/17 06:21:14;;;;;;;19.07;14.43;;;16.50;99.90;;;;;;5004197;28;20298;-52
2021/09/17 06:23:41;;;;;;;17.93;13.90;;;16.50;89.70;;;;;;5001828;28;20306;-52
2021/09/17 06:26:11;;;;;;;16.20;12.83;;;16.50;1.00;;;;;;5000396;28;20564;-52
2021/09/17 06:28:38;;;;;;;16.67;12.87;;;16.50;1.00;;;;;;5005356;28;20195;-52
2021/09/17 06:31:05;;;;;;;16.63;13.20;;;16.40;1.00;;;;;;5014022;28;20226;-51
2021/09/17 06:33:32;;;;;;;16.73;13.10;;;16.40;1.00;;;;;;5000436;28;20528;-51
2021/09/17 06:35:59;;;;;;;18.80;14.10;;;16.30;1.00;;;;;;5001497;28;20286;-52
2021/09/17 06:38:26;;;;;;;18.47;13.63;;;16.20;1.00;;;;;;4995390;28;20250;-52
2021/09/17 06:40:53;;;;;;;17.70;13.63;;;16.20;28.30;;;;;;5000040;28;20227;-52
2021/09/17 06:43:20;;;;;;;19.37;13.83;;;16.40;1.00;;;;;;5006994;28;20291;-52
2021/09/17 06:45:47;;;;;;;19.87;14.37;;;16.50;1.00;;;;;;5004084;28;20238;-52
2021/09/17 06:48:16;;;;;;;20.13;15.23;;;16.40;1.00;;;;;;5011426;28;20292;-52
2021/09/17 06:50:43;;;;;;;18.63;13.67;;;16.40;1.00;;;;;;5003186;28;20202;-52
2021/09/17 06:53:10;;;;;;;18.20;14.57;;;16.40;1.00;;;;;;5005648;28;20203;-52
2021/09/17 06:55:37;;;;;;;18.47;14.70;;;16.40;1.00;;;;;;5003265;28;20274;-52
2021/09/17 06:58:05;;;;;;;20.83;15.57;;;16.20;99.90;;;;;;5001816;28;20697;-52
2021/09/17 07:00:35;;;;;;;21.63;15.60;;;16.20;99.90;;;;;;5005298;28;20199;-52
2021/09/17 07:03:03;;;;;;;18.97;14.33;;;16.10;99.90;;;;;;4998993;28;20263;-52
2021/09/17 07:05:31;;;;;;;19.73;16.43;;;16.10;99.90;;;;;;5000843;28;20310;-52
2021/09/17 07:08:09;;;;;;;22.87;16.37;;;16.10;99.90;;;;;;5004638;28;20298;-52
2021/09/17 07:10:38;;;;;;;23.57;17.37;;;16.10;99.90;;;;;;5010591;28;20284;-52
2021/09/17 07:13:06;;;;;;;21.63;16.93;;;16.10;99.90;;;;;;5000299;28;20199;-52
2021/09/17 07:15:34;;;;;;;23.23;17.90;;;16.20;99.90;;;;;;5015590;28;20211;-52
2021/09/17 07:18:03;;;;;;;24.77;18.47;;;16.20;99.90;;;;;;4997446;28;20298;-52
2021/09/17 07:20:30;;;;;;;21.57;17.33;;;16.20;99.90;;;;;;5004144;28;20289;-52
2021/09/17 07:22:57;;;;;;;23.60;17.90;;;16.20;99.90;;;;;;5006723;28;20317;-52
2021/09/17 07:25:24;;;;;;;26.43;19.93;;;16.30;99.90;;;;;;5005265;28;20284;-52
2021/09/17 07:27:52;;;;;;;24.33;18.23;;;16.20;99.90;;;;;;5008026;28;20213;-51
2021/09/17 07:30:19;;;;;;;24.40;19.70;;;16.20;99.90;;;;;;4999373;28;20295;-52
2021/09/17 07:32:46;;;;;;;23.17;18.60;;;16.30;99.90;;;;;;4997868;28;20262;-52
2021/09/17 07:35:15;;;;;;;25.80;19.80;;;16.40;99.90;;;;;;5002739;28;20210;-52
2021/09/17 07:37:44;;;;;;;26.20;19.40;;;16.40;99.90;;;;;;4999763;28;20202;-52
2021/09/17 07:40:13;;;;;;;26.90;20.47;;;16.40;99.90;;;;;;5003375;28;20291;-52
2021/09/17 07:42:44;;;;;;;22.90;19.43;;;16.30;99.90;;;;;;5004759;28;20211;-52
2021/09/17 07:45:12;;;;;;;26.00;19.57;;;16.40;99.90;;;;;;4996708;28;20248;-52
2021/09/17 07:47:40;;;;;;;24.73;19.70;;;16.40;99.90;;;;;;5002301;28;20303;-52
2021/09/17 07:50:08;;;;;;;25.70;20.20;;;16.40;99.90;;;;;;5005044;28;20206;-52
2021/09/17 07:52:35;;;;;;;26.40;19.87;;;16.40;99.90;;;;;;5002517;28;20231;-52
2021/09/17 07:55:04;;;;;;;27.90;20.73;;;16.50;99.90;;;;;;4997700;28;20209;-52
2021/09/17 07:57:31;;;;;;;25.23;21.17;;;16.70;99.90;;;;;;5005448;28;20311;-52
2021/09/17 07:59:58;;;;;;;27.87;20.53;;;16.80;99.90;;;;;;5003064;28;20672;-52
2021/09/17 08:02:25;;;;;;;26.23;20.10;;;17.00;99.90;;;;;;4999295;28;20285;-51
2021/09/17 08:04:52;;;;;;;27.47;20.27;;;17.00;99.90;;;;;;5000996;28;20235;-52
2021/09/17 08:07:19;;;;;;;26.60;20.63;;;17.10;99.90;;;;;;5000375;28;20235;-52
2021/09/17 08:09:46;;;;;;;25.13;20.87;;;17.20;99.90;;;;;;5009388;28;20249;-51
2021/09/17 08:12:13;;;;;;;24.30;21.33;;;17.20;99.90;;;;;;5002343;28;20199;-52
2021/09/17 08:14:40;;;;;;;29.00;20.93;;;17.40;99.90;;;;;;4999857;28;20669;-52
2021/09/17 08:17:07;;;;;;;27.77;21.43;;;17.40;99.90;;;;;;5006562;28;20323;-51
2021/09/17 08:19:34;;;;;;;28.33;20.73;;;17.60;99.90;;;;;;5002574;28;20308;-52
2021/09/17 08:22:01;;;;;;;29.50;21.57;;;17.70;1.00;;;;;;5005464;28;20278;-52
2021/09/17 08:24:28;;;;;;;28.07;22.43;;;17.70;1.00;;;;;;4999645;28;20279;-52
2021/09/17 08:26:57;;;;;;;26.67;20.60;;;18.10;1.00;;;;;;5000322;28;20215;-52
2021/09/17 08:29:24;;;;;;;27.00;20.83;;;18.20;1.00;;;;;;5008909;28;20237;-52
2021/09/17 08:31:54;;;;;;;26.57;20.27;;;18.40;1.00;;;;;;5001435;28;20259;-52
2021/09/17 08:34:21;;;;;;;27.90;20.83;;;18.90;1.00;;;;;;5011372;28;20241;-52
2021/09/17 08:36:48;;;;;;;28.13;21.80;;;19.10;1.00;;;;;;4996659;28;20247;-52
2021/09/17 08:39:15;;;;;;;29.63;21.73;;;18.90;99.90;;;;;;5004336;28;20599;-52
2021/09/17 08:41:44;;;;;;;31.00;21.90;;;18.90;1.00;;;;;;4996092;28;20244;-52
2021/09/17 08:44:13;;;;;;;29.27;22.20;;;18.80;1.00;;;;;;5007413;28;20315;-52
2021/09/17 08:46:41;;;;;;;30.13;21.77;;;18.90;1.00;;;;;;5003835;28;20336;-52
2021/09/17 08:49:09;;;;;;;28.90;21.20;;;19.30;1.00;;;;;;5005004;28;20209;-52
2021/09/17 08:51:37;;;;;;;32.30;23.30;;;19.30;1.00;;;;;;4997182;28;20908;-52
2021/09/17 08:54:04;;;;;;;33.07;22.23;;;19.20;1.00;;;;;;5008498;28;20538;-52
2021/09/17 08:56:32;;;;;;;32.27;23.10;;;19.30;1.00;;;;;;5004007;28;20219;-52
2021/09/17 08:59:01;;;;;;;31.33;22.73;;;19.20;1.00;;;;;;5012829;28;20303;-52
2021/09/17 09:01:29;;;;;;;31.97;23.20;;;19.60;1.00;;;;;;5011458;28;20201;-52
2021/09/17 09:04:00;;;;;;;27.77;21.57;;;19.90;1.00;;;;;;5000678;28;20322;-52
2021/09/17 09:06:42;;;;;;;29.90;21.53;;;19.70;99.90;;;;;;5017711;28;20224;-52
2021/09/17 09:09:16;;;;;;;34.37;23.30;;;19.80;99.90;;;;;;5004449;28;20248;-52
2021/09/17 09:11:53;;;;;;;28.10;22.00;;;19.80;1.00;;;;;;5010892;28;20275;-52
2021/09/17 09:14:21;;;;;;;30.97;21.80;;;20.20;1.00;;;;;;5012909;28;20201;-52
2021/09/17 09:16:53;;;;;;;29.83;22.70;;;20.20;1.00;;;;;;5009167;28;20229;-52
2021/09/17 09:19:20;;;;;;;28.77;21.73;;;20.30;1.00;;;;;;5017477;28;20255;-52
2021/09/17 09:21:49;;;;;;;34.00;23.77;;;20.10;1.00;;;;;;5009537;28;20233;-52
2021/09/17 09:24:20;;;;;;;30.03;22.30;;;20.00;1.00;;;;;;5012002;28;20209;-52
2021/09/17 09:27:12;;;;;;;32.60;22.73;;;20.10;99.90;;;;;;5017583;28;20236;-53
2021/09/17 09:29:42;;;;;;;30.30;21.60;;;20.20;17.50;;;;;;5014219;28;20266;-53
2021/09/17 09:32:24;;;;;;;31.53;23.00;;;20.30;1.00;;;;;;5008294;28;20256;-52
2021/09/17 09:34:54;;;;;;;30.90;22.33;;;20.20;1.00;;;;;;5004741;28;20234;-53
2021/09/17 09:37:23;;;;;;;32.37;23.17;;;20.20;1.00;;;;;;5004253;28;20202;-52
2021/09/17 09:39:53;;;;;;;33.47;23.17;;;20.00;1.00;;;;;;5012779;28;20311;-52
2021/09/17 09:42:29;;;;;;;32.30;23.57;;;20.10;1.00;;;;;;5020681;28;20251;-52
2021/09/17 09:45:14;;;;;;;29.93;22.23;;;19.80;1.00;;;;;;5008931;28;20223;-52
2021/09/17 09:47:52;;;;;;;31.83;23.57;;;19.80;99.90;;;;;;5011920;28;20384;-52
2021/09/17 09:50:22;;;;;;;34.77;24.37;;;20.00;1.00;;;;;;5011828;28;20359;-52
2021/09/17 09:52:51;;;;;;;32.40;23.40;;;20.00;1.00;;;;;;5018593;28;20196;-52
2021/09/17 09:55:18;;;;;;;32.90;23.07;;;20.20;1.00;;;;;;5013176;28;20296;-52
2021/09/17 09:57:45;;;;;;;31.97;22.43;;;20.50;1.00;;;;;;5008535;28;20276;-52
2021/09/17 10:00:14;;;;;;;34.47;24.67;;;20.70;1.00;;;;;;5006073;28;20225;-52
2021/09/17 10:02:43;;;;;;;33.43;24.07;;;20.50;1.00;;;;;;4999343;28;20595;-52
2021/09/17 10:05:15;;;;;;;33.73;22.10;;;20.50;1.00;;;;;;5023874;28;20258;-52
2021/09/17 10:07:43;;;;;;;29.87;20.00;;;20.60;1.00;;;;;;5007152;28;20233;-52
2021/09/17 10:10:12;;;;;;;26.63;19.83;;;20.50;1.00;;;;;;5006612;28;20633;-52
2021/09/17 10:12:40;;;;;;;25.93;17.90;;;20.50;99.90;;;;;;5014580;28;20208;-52
2021/09/17 10:15:12;;;;;;;22.27;16.23;;;20.20;99.90;;;;;;5015783;28;20236;-52
2021/09/17 10:17:47;;;;;;;23.23;17.03;;;20.20;1.00;;;;;;5001104;28;20228;-52
2021/09/17 10:20:14;;;;;;;19.10;14.30;;;20.20;1.00;;;;;;5012691;28;20225;-52
2021/09/17 10:22:46;;;;;;;18.97;12.80;;;20.20;1.00;;;;;;5005195;28;20292;-52
2021/09/17 10:25:24;;;;;;;16.00;11.13;;;20.50;1.00;;;;;;5008639;28;20281;-52
2021/09/17 10:28:08;;;;;;;14.20;10.67;;;20.70;1.00;;;;;;5006847;28;20229;-52
2021/09/17 10:30:39;;;;;;;13.77;10.27;;;20.60;99.90;;;;;;5010304;28;20555;-52
2021/09/17 10:33:27;;;;;;;16.30;11.73;;;20.70;99.90;;;;;;5010021;28;20310;-53
2021/09/17 10:35:54;;;;;;;15.37;11.67;;;20.80;56.50;;;;;;5002155;28;20364;-52
2021/09/17 10:38:27;;;;;;;15.37;11.90;;;20.90;1.00;;;;;;5000708;28;20241;-52
2021/09/17 10:41:02;;;;;;;13.87;11.73;;;20.90;99.90;;;;;;5008777;28;20299;-52
2021/09/17 10:43:35;;;;;;;12.47;10.60;;;21.00;41.20;;;;;;5011350;28;20647;-52
2021/09/17 10:46:20;;;;;;;16.20;13.00;;;21.20;1.00;;;;;;5011309;28;20190;-50
2021/09/17 10:48:52;;;;;;;15.93;13.27;;;21.10;99.90;;;;;;5006173;28;20197;-53
2021/09/17 10:51:33;;;;;;;18.50;13.03;;;21.00;1.00;;;;;;4997607;28;20200;-50
2021/09/17 10:54:06;;;;;;;15.53;11.27;;;20.90;1.00;;;;;;5009368;28;20301;-50
2021/09/17 10:56:48;;;;;;;12.03;10.10;;;20.90;1.00;;;;;;4997499;28;20284;-50
2021/09/17 10:59:29;;;;;;;16.37;12.10;;;20.80;1.00;;;;;;4999504;28;20232;-50
2021/09/17 11:02:03;;;;;;;15.50;12.23;;;20.70;1.00;;;;;;5002085;28;20297;-51
2021/09/17 11:04:36;;;;;;;14.10;11.00;;;20.70;1.00;;;;;;4995050;28;20255;-51
2021/09/17 11:07:22;;;;;;;16.63;11.30;;;20.70;1.00;;;;;;5000164;28;20197;-51
2021/09/17 11:09:56;;;;;;;12.53;9.37;;;20.90;1.00;;;;;;5002536;28;21076;-51
2021/09/17 11:12:26;;;;;;;13.00;10.17;;;21.20;1.00;;;;;;5007229;28;20603;-51
2021/09/17 11:15:17;;;;;;;17.07;10.47;;;21.20;1.00;;;;;;4994626;28;20204;-54
2021/09/17 11:17:53;;;;;;;14.40;11.87;;;21.10;1.00;;;;;;5004743;28;20287;-50
2021/09/17 11:20:26;;;;;;;19.10;13.47;;;21.30;99.90;;;;;;4998408;28;20252;-51
2021/09/17 11:22:56;;;;;;;15.80;12.20;;;21.30;1.00;;;;;;5002943;28;20228;-51
2021/09/17 11:25:41;;;;;;;11.40;9.13;;;21.00;99.90;;;;;;5004686;28;20199;-51
2021/09/17 11:28:39;;;;;;;10.87;8.20;;;21.00;1.00;;;;;;5004441;28;20238;-50
2021/09/17 11:31:14;;;;;;;11.77;8.57;;;21.10;1.00;;;;;;5007937;28;20463;-50
2021/09/17 11:33:42;;;;;;;14.00;8.53;;;21.20;1.00;;;;;;5008246;28;20229;-51
2021/09/17 11:36:10;;;;;;;11.73;9.00;;;21.00;1.00;;;;;;5005717;28;20244;-50
2021/09/17 11:38:37;;;;;;;12.80;9.03;;;21.40;1.00;;;;;;5000385;28;20264;-51
2021/09/17 11:41:04;;;;;;;13.33;8.47;;;21.50;1.00;;;;;;5004098;28;20249;-51
2021/09/17 11:43:41;;;;;;;13.03;9.50;;;21.50;99.90;;;;;;5005814;28;20642;-50
2021/09/17 11:46:08;;;;;;;12.57;8.90;;;21.40;1.00;;;;;;5000508;28;20232;-51
2021/09/17 11:48:35;;;;;;;17.33;9.00;;;21.40;99.90;;;;;;5002646;28;20228;-51
2021/09/17 11:51:10;;;;;;;15.60;9.80;;;21.80;99.90;;;;;;5001180;28;20206;-51
2021/09/17 11:53:45;;;;;;;12.53;9.23;;;22.10;99.90;;;;;;4995632;28;20303;-51
2021/09/17 11:56:12;;;;;;;13.30;9.33;;;22.40;99.90;;;;;;4998531;28;20735;-51
2021/09/17 11:58:43;;;;;;;15.27;9.80;;;22.80;99.90;;;;;;5000032;28;20209;-51
2021/09/17 12:01:22;;;;;;;14.23;9.53;;;23.10;1.00;;;;;;4993720;28;20298;-51
2021/09/17 12:03:54;;;;;;;19.60;10.13;;;23.00;1.00;;;;;;5005510;28;20205;-51
2021/09/17 12:06:21;;;;;;;13.67;8.80;;;23.30;1.00;;;;;;4998537;28;20232;-51
2021/09/17 12:08:48;;;;;;;15.37;9.60;;;23.60;1.00;;;;;;5000450;28;20199;-52
2021/09/17 12:11:20;;;;;;;15.73;9.97;;;23.30;1.00;;;;;;5013113;28;20240;-51
2021/09/17 12:13:55;;;;;;;13.50;9.87;;;23.10;1.00;;;;;;5019065;28;20658;-52
2021/09/17 12:16:22;;;;;;;12.10;8.67;;;23.00;99.90;;;;;;5010030;28;20731;-52
2021/09/17 12:19:03;;;;;;;15.73;9.67;;;23.30;1.00;;;;;;4996082;28;20323;-52
2021/09/17 12:21:30;;;;;;;14.83;10.17;;;23.40;1.00;;;;;;5015020;28;20248;-52
2021/09/17 12:24:20;;;;;;;13.07;9.30;;;23.10;1.00;;;;;;5006554;28;20640;-52
2021/09/17 12:26:56;;;;;;;12.13;8.10;;;23.60;1.00;;;;;;4999713;28;20196;-52
2021/09/17 12:29:23;;;;;;;11.10;8.40;;;24.20;1.00;;;;;;4992030;28;20619;-52
2021/09/17 12:31:51;;;;;;;12.63;8.63;;;24.30;1.00;;;;;;5012519;28;20251;-52
2021/09/17 12:34:20;;;;;;;9.33;7.60;;;23.80;1.00;;;;;;4999527;28;20263;-52
2021/09/17 12:36:54;;;;;;;13.20;10.07;;;23.60;1.00;;;;;;4996793;28;20316;-52
2021/09/17 12:39:24;;;;;;;12.17;8.70;;;23.40;1.00;;;;;;4993836;28;20245;-52
2021/09/17 12:42:05;;;;;;;10.43;8.13;;;23.00;1.00;;;;;;4999512;28;20230;-52